Revel Montgey Airfield

METAR LFMK TAF LFMK
4 °C
°C
-
°C
5m
Alter
20:05:11
LT
19:05
UTC
0 ft

1.000

2.000

3.000

4.000

5.000

VFR
<?= Yii::t('app', 'Wind direction') ?> <?= Yii::t('app', 'of'); ?>
260°
08:08
Sonne auf
70%
Luftfeuchtigkeit
Windscherung
Geschlossen/Schnee
RWY-Sichtweite
RWY Zustand
Vert. Sichtweite
Min. Sichtbarkeit
CAVOK
Trend
Korrektur
Besonderer Bericht
1030 hPa
QNH
METAR LFMK 301900Z AUTO 26011KT 230V290 CAVOK 04/M01 Q1030
Klar
8 kt
8 kt
20:00
VFR
13 kt
21:00
VFR
13 kt
22:00
VFR
13 kt
23:00
MVFR
13 kt
00:00
MVFR
13 kt
01:00
MVFR
13 kt
02:00
MVFR
13 kt
10 km+
Sichtweite
Keine
Wolkendecke
11 kt
Wind
metar-taf.com/LFIR

Metar-Taf.com

Visueller Decoder

Wir und Dritte verfolgen dein Internetverhalten auf unserer Website mit Cookies. Wenn du fortfährst, gehen wir davon aus, dass du mit unserer Cookie-Richtlinie einverstanden bist.